createdAt,value
2017-10-10T00:01:08.226Z,66.56
2017-10-10T00:03:35.762Z,66.67
2017-10-10T00:06:03.283Z,66.06
2017-10-10T00:08:31.031Z,66.99
2017-10-10T00:10:58.576Z,65.81
2017-10-10T00:13:26.237Z,66.63
2017-10-10T00:15:54.002Z,66.75
2017-10-10T00:18:21.560Z,67.04
2017-10-10T00:20:49.121Z,66.65
2017-10-10T00:23:16.987Z,66.92
2017-10-10T00:25:44.553Z,66.54
2017-10-10T00:28:12.105Z,66.64
2017-10-10T00:30:40.073Z,66.63
2017-10-10T00:33:07.632Z,66.93
2017-10-10T00:35:35.192Z,66.85
2017-10-10T00:38:03.038Z,67.37
2017-10-10T00:40:30.550Z,67.00
2017-10-10T00:42:58.075Z,66.21
2017-10-10T00:45:25.815Z,66.20
2017-10-10T00:47:53.328Z,64.46
2017-10-10T00:50:20.871Z,64.93
2017-10-10T00:52:48.420Z,65.17
2017-10-10T00:55:15.927Z,64.91
2017-10-10T00:57:43.444Z,65.51
2017-10-10T01:00:11.397Z,66.33
2017-10-10T01:02:38.956Z,66.23
2017-10-10T01:05:06.466Z,65.93
2017-10-10T01:07:34.140Z,66.11
2017-10-10T01:10:01.659Z,66.08
2017-10-10T01:12:29.195Z,66.56
2017-10-10T01:14:57.039Z,66.63
2017-10-10T01:17:24.559Z,66.85
2017-10-10T01:19:52.088Z,67.70
2017-10-10T01:22:19.736Z,67.76
2017-10-10T01:24:47.271Z,67.60
2017-10-10T01:27:14.789Z,67.40
2017-10-10T01:29:42.570Z,68.38
2017-10-10T01:32:10.099Z,67.53
2017-10-10T01:34:37.633Z,67.97
2017-10-10T01:37:05.398Z,67.97
2017-10-10T01:39:32.938Z,69.16
2017-10-10T01:42:00.454Z,68.47
2017-10-10T01:44:28.178Z,69.38
2017-10-10T01:46:55.736Z,69.66
2017-10-10T01:49:23.247Z,70.18
2017-10-10T01:51:50.956Z,68.80
2017-10-10T01:54:18.471Z,69.06
2017-10-10T01:56:45.986Z,68.46
2017-10-10T01:59:13.551Z,69.79
2017-10-10T02:01:41.091Z,69.35
2017-10-10T02:04:08.651Z,69.29
2017-10-10T02:06:36.209Z,68.59
2017-10-10T02:09:03.754Z,69.60
2017-10-10T02:11:31.332Z,68.81
2017-10-10T02:13:59.295Z,68.97
2017-10-10T02:16:26.866Z,68.12
2017-10-10T02:18:54.432Z,68.47
2017-10-10T02:21:22.163Z,67.97
2017-10-10T02:23:49.736Z,68.03
2017-10-10T02:26:17.256Z,68.83
2017-10-10T02:28:45.162Z,68.29
2017-10-10T02:31:12.721Z,68.50
2017-10-10T02:33:40.281Z,68.70
2017-10-10T02:36:08.122Z,69.27
2017-10-10T02:38:35.639Z,68.88
2017-10-10T02:41:03.165Z,69.09
2017-10-10T02:43:30.926Z,68.70
2017-10-10T02:45:58.488Z,69.04
2017-10-10T02:48:26.053Z,68.83
2017-10-10T02:50:53.894Z,68.63
2017-10-10T02:53:21.406Z,68.12
2017-10-10T02:55:49.028Z,68.31
2017-10-10T02:58:16.585Z,67.71
2017-10-10T03:00:44.150Z,68.95
2017-10-10T03:03:11.706Z,69.16
2017-10-10T03:05:39.446Z,69.31
2017-10-10T03:08:06.967Z,68.86
2017-10-10T03:10:34.486Z,72.00
2017-10-10T03:13:02.186Z,72.52
2017-10-10T03:15:29.707Z,71.93
2017-10-10T03:17:57.267Z,70.95
2017-10-10T03:20:25.028Z,69.58
2017-10-10T03:22:52.589Z,69.40
2017-10-10T03:25:20.106Z,68.95
2017-10-10T03:27:48.833Z,68.43
2017-10-10T03:30:16.352Z,67.83
2017-10-10T03:32:43.868Z,68.03
2017-10-10T03:35:11.618Z,67.62
2017-10-10T03:37:39.139Z,68.04
2017-10-10T03:40:06.667Z,68.33
2017-10-10T03:42:34.315Z,68.03
2017-10-10T03:45:01.835Z,67.84
2017-10-10T03:47:29.374Z,67.64
2017-10-10T03:49:57.274Z,67.64
2017-10-10T03:52:24.835Z,67.78
2017-10-10T03:54:52.401Z,67.88
2017-10-10T03:57:20.157Z,67.90
2017-10-10T03:59:47.679Z,68.49
2017-10-10T04:02:15.186Z,68.74
2017-10-10T04:04:42.836Z,69.30
2017-10-10T04:07:10.359Z,68.35
2017-10-10T04:09:37.867Z,67.90
2017-10-10T04:12:05.723Z,67.81
2017-10-10T04:14:33.243Z,68.00
2017-10-10T04:17:00.754Z,68.42
2017-10-10T04:19:28.578Z,68.21
2017-10-10T04:21:56.261Z,68.72
2017-10-10T04:24:23.821Z,68.61
2017-10-10T04:26:51.562Z,68.65
2017-10-10T04:29:19.084Z,68.75
2017-10-10T04:31:46.600Z,67.79
2017-10-10T04:34:14.546Z,67.95
2017-10-10T04:36:42.058Z,67.48
2017-10-10T04:39:09.591Z,68.02
2017-10-10T04:41:37.347Z,66.96
2017-10-10T04:44:04.905Z,68.25
2017-10-10T04:46:32.467Z,68.69
2017-10-10T04:49:00.202Z,68.35
2017-10-10T04:51:27.723Z,67.99
2017-10-10T04:53:55.255Z,67.73
2017-10-10T04:56:23.114Z,67.67
2017-10-10T04:58:50.631Z,67.84
2017-10-10T05:01:18.142Z,67.72
2017-10-10T05:03:45.818Z,67.37
2017-10-10T05:06:13.347Z,66.96
2017-10-10T05:08:40.907Z,67.01
2017-10-10T05:11:08.474Z,67.11
2017-10-10T05:13:36.024Z,65.74
2017-10-10T05:16:03.585Z,66.75
2017-10-10T05:18:31.326Z,67.26
2017-10-10T05:20:58.844Z,67.03
2017-10-10T05:23:26.363Z,66.35
2017-10-10T05:25:53.931Z,66.65
2017-10-10T05:28:21.446Z,66.07
2017-10-10T05:30:48.971Z,65.63
2017-10-10T05:33:16.804Z,65.55
2017-10-10T05:35:44.365Z,65.53
2017-10-10T05:38:11.922Z,65.15
2017-10-10T05:40:39.688Z,65.14
2017-10-10T05:43:07.246Z,65.02
2017-10-10T05:45:34.805Z,65.56
2017-10-10T05:48:02.373Z,65.04
2017-10-10T05:50:29.924Z,65.34
2017-10-10T05:52:57.442Z,66.22
2017-10-10T05:55:25.254Z,65.34
2017-10-10T05:57:52.771Z,64.93
2017-10-10T06:00:20.291Z,64.72
2017-10-10T06:02:48.032Z,65.07
2017-10-10T06:05:15.583Z,65.41
2017-10-10T06:07:43.111Z,65.01
2017-10-10T06:10:10.703Z,64.13
2017-10-10T06:12:39.110Z,64.47
2017-10-10T06:15:06.634Z,64.21
2017-10-10T06:17:34.200Z,64.42
2017-10-10T06:20:01.758Z,64.80
2017-10-10T06:22:29.317Z,63.73
2017-10-10T06:24:57.161Z,63.20
2017-10-10T06:27:24.683Z,63.81
2017-10-10T06:29:52.204Z,63.19
2017-10-10T06:32:19.935Z,62.21
2017-10-10T06:34:47.467Z,62.27
2017-10-10T06:37:14.995Z,62.69
2017-10-10T06:39:42.718Z,62.22
2017-10-10T06:42:10.239Z,61.74
2017-10-10T06:44:37.763Z,61.58
2017-10-10T06:47:05.330Z,62.46
2017-10-10T06:49:32.876Z,62.53
2017-10-10T06:52:00.437Z,62.71
2017-10-10T06:54:28.301Z,62.51
2017-10-10T06:56:56.066Z,63.82
2017-10-10T06:59:23.626Z,62.58
2017-10-10T07:01:51.288Z,62.75
2017-10-10T07:04:18.852Z,62.38
2017-10-10T07:06:46.404Z,62.20
2017-10-10T07:09:14.148Z,62.38
2017-10-10T07:11:41.662Z,62.10
2017-10-10T07:14:09.186Z,62.04
2017-10-10T07:16:36.847Z,61.97
2017-10-10T07:19:04.414Z,60.93
2017-10-10T07:21:32.067Z,61.23
2017-10-10T07:23:59.814Z,62.17
2017-10-10T07:26:27.322Z,61.67
2017-10-10T07:28:54.850Z,61.57
2017-10-10T07:31:22.414Z,61.77
2017-10-10T07:33:49.964Z,62.32
2017-10-10T07:36:17.476Z,61.91
2017-10-10T07:38:45.288Z,60.79
2017-10-10T07:41:12.891Z,60.94
2017-10-10T07:43:40.422Z,61.39
2017-10-10T07:46:08.271Z,61.63
2017-10-10T07:48:35.833Z,61.09
2017-10-10T07:51:03.390Z,61.42
2017-10-10T07:53:31.382Z,60.69
2017-10-10T07:55:58.943Z,59.80
2017-10-10T07:58:26.451Z,60.48
2017-10-10T08:00:54.215Z,59.31
2017-10-10T08:03:21.800Z,59.74
2017-10-10T08:05:49.360Z,58.82
2017-10-10T08:08:17.202Z,58.38
2017-10-10T08:10:44.716Z,58.50
2017-10-10T08:13:12.246Z,58.76
2017-10-10T08:15:40.186Z,59.43
2017-10-10T08:18:07.696Z,58.64
2017-10-10T08:20:35.215Z,58.30
2017-10-10T08:23:02.768Z,58.43
2017-10-10T08:25:30.279Z,59.33
2017-10-10T08:27:57.800Z,58.39
2017-10-10T08:30:25.677Z,58.44
2017-10-10T08:32:53.207Z,58.51
2017-10-10T08:35:20.715Z,58.27
2017-10-10T08:37:48.456Z,58.89
2017-10-10T08:40:16.005Z,58.64
2017-10-10T08:42:43.565Z,59.32
2017-10-10T08:45:11.329Z,59.74
2017-10-10T08:47:38.847Z,60.36
2017-10-10T08:50:06.360Z,59.05
2017-10-10T08:52:34.108Z,59.63
2017-10-10T08:55:01.685Z,59.77
2017-10-10T08:57:29.192Z,59.06
2017-10-10T08:59:57.072Z,58.76
2017-10-10T09:02:24.644Z,59.85
2017-10-10T09:04:52.162Z,60.47
2017-10-10T09:07:19.994Z,60.52
2017-10-10T09:09:47.519Z,59.67
2017-10-10T09:12:15.046Z,60.11
2017-10-10T09:14:42.595Z,59.40
2017-10-10T09:17:10.133Z,57.76
2017-10-10T09:19:37.667Z,56.84
2017-10-10T09:22:05.448Z,55.90
2017-10-10T09:24:32.990Z,56.19
2017-10-10T09:27:00.565Z,54.80
2017-10-10T09:29:28.223Z,54.38
2017-10-10T09:31:55.730Z,54.21
2017-10-10T09:34:24.249Z,53.84
2017-10-10T09:36:51.894Z,52.52
2017-10-10T09:39:19.410Z,52.39
2017-10-10T09:41:46.928Z,53.02
2017-10-10T09:44:14.780Z,54.43
2017-10-10T09:46:42.352Z,54.28
2017-10-10T09:49:09.866Z,55.91
2017-10-10T09:51:38.291Z,55.76
2017-10-10T09:54:05.854Z,56.04
2017-10-10T09:56:33.412Z,54.76
2017-10-10T09:59:00.967Z,54.56
2017-10-10T10:01:28.475Z,53.02
2017-10-10T10:03:57.011Z,50.23
2017-10-10T10:06:25.124Z,50.34
2017-10-10T10:08:52.978Z,49.45
2017-10-10T10:11:20.505Z,46.07
2017-10-10T10:13:48.067Z,46.40
2017-10-10T10:16:15.624Z,48.25
2017-10-10T10:18:43.130Z,50.11
2017-10-10T10:21:10.675Z,51.30
2017-10-10T10:23:38.282Z,51.22
2017-10-10T10:26:05.798Z,52.04
2017-10-10T10:28:33.530Z,52.05
2017-10-10T10:31:01.081Z,53.95
2017-10-10T10:33:28.589Z,54.67
2017-10-10T10:35:56.284Z,55.22
2017-10-10T10:38:23.795Z,54.11
2017-10-10T10:40:51.316Z,54.06
2017-10-10T10:43:19.083Z,54.06
2017-10-10T10:45:46.591Z,53.27
2017-10-10T10:48:14.108Z,53.80
2017-10-10T10:50:41.839Z,53.87
2017-10-10T10:53:09.359Z,54.71
2017-10-10T10:55:36.866Z,53.59
2017-10-10T10:58:04.502Z,51.98
2017-10-10T11:00:32.011Z,52.17
2017-10-10T11:02:59.553Z,52.12
2017-10-10T11:05:27.257Z,53.75
2017-10-10T11:07:54.774Z,54.51
2017-10-10T11:10:22.285Z,56.29
2017-10-10T11:12:50.008Z,56.31
2017-10-10T11:15:17.554Z,56.25
2017-10-10T11:17:45.114Z,57.12
2017-10-10T11:20:12.880Z,58.14
2017-10-10T11:22:40.437Z,58.50
2017-10-10T11:25:07.961Z,58.35
2017-10-10T11:27:35.757Z,59.14
2017-10-10T11:30:03.271Z,60.10
2017-10-10T11:32:30.778Z,61.71
2017-10-10T11:34:58.437Z,62.91
2017-10-10T11:37:25.951Z,63.91
2017-10-10T11:39:53.556Z,63.68
2017-10-10T11:42:21.319Z,62.70
2017-10-10T11:44:48.879Z,63.13
2017-10-10T11:47:16.437Z,63.46
2017-10-10T11:49:44.008Z,61.58
2017-10-10T11:52:11.554Z,62.68
2017-10-10T11:54:39.116Z,62.79
2017-10-10T11:57:06.980Z,62.54
2017-10-10T11:59:34.540Z,62.74
2017-10-10T12:02:02.099Z,64.44
2017-10-10T12:04:29.843Z,64.47
2017-10-10T12:06:57.358Z,65.01
2017-10-10T12:09:24.983Z,64.66
2017-10-10T12:11:52.719Z,65.48
2017-10-10T12:14:20.230Z,65.79
2017-10-10T12:16:47.862Z,66.41
2017-10-10T12:19:15.826Z,65.89
2017-10-10T12:21:43.338Z,66.39
2017-10-10T12:24:10.853Z,67.01
2017-10-10T12:26:38.400Z,66.70
2017-10-10T12:29:05.963Z,67.08
2017-10-10T12:31:33.526Z,66.68
2017-10-10T12:34:01.099Z,65.69
2017-10-10T12:36:28.644Z,65.60
2017-10-10T12:38:56.152Z,65.99
2017-10-10T12:41:23.864Z,65.42
2017-10-10T12:43:52.344Z,66.19
2017-10-10T12:46:19.851Z,64.76
2017-10-10T12:48:47.667Z,64.61
2017-10-10T12:51:15.226Z,64.43
2017-10-10T12:53:42.737Z,63.86
2017-10-10T12:56:10.651Z,63.84
2017-10-10T12:58:38.159Z,64.08
2017-10-10T13:01:05.675Z,64.18
2017-10-10T13:03:33.230Z,63.77
2017-10-10T13:06:00.795Z,64.48
2017-10-10T13:08:28.302Z,63.50
2017-10-10T13:10:56.220Z,63.20
2017-10-10T13:13:23.739Z,64.00
2017-10-10T13:15:51.255Z,63.88
2017-10-10T13:18:18.970Z,66.31
2017-10-10T13:20:46.652Z,66.60
2017-10-10T13:23:14.165Z,66.18
2017-10-10T13:25:41.723Z,66.43
2017-10-10T13:28:09.234Z,67.35
2017-10-10T13:30:36.742Z,68.85
2017-10-10T13:33:04.523Z,70.13
2017-10-10T13:35:32.035Z,69.59
2017-10-10T13:37:59.586Z,70.43
2017-10-10T13:40:27.139Z,70.79
2017-10-10T13:42:54.689Z,70.68
2017-10-10T13:45:22.245Z,70.59
2017-10-10T13:47:50.108Z,71.34
2017-10-10T13:50:17.669Z,69.32
2017-10-10T13:52:45.324Z,69.85
2017-10-10T13:55:13.102Z,71.45
2017-10-10T13:57:40.654Z,70.23
2017-10-10T14:00:08.227Z,69.83
2017-10-10T14:02:36.292Z,69.28
2017-10-10T14:05:04.024Z,68.96
2017-10-10T14:07:31.616Z,70.96
2017-10-10T14:09:59.450Z,70.81
2017-10-10T14:12:27.146Z,71.16
2017-10-10T14:14:54.656Z,71.07
2017-10-10T14:17:22.323Z,70.02
2017-10-10T14:19:49.844Z,68.84
2017-10-10T14:22:17.363Z,66.71
2017-10-10T14:24:45.118Z,67.38
2017-10-10T14:27:12.632Z,68.10
2017-10-10T14:29:40.252Z,67.45
2017-10-10T14:32:08.428Z,67.45
2017-10-10T14:34:36.003Z,67.01
2017-10-10T14:37:03.528Z,65.53
2017-10-10T14:39:31.617Z,64.71
2017-10-10T14:41:59.277Z,67.53
2017-10-10T14:44:26.904Z,68.38
2017-10-10T14:46:54.480Z,67.89
2017-10-10T14:49:22.000Z,67.58
2017-10-10T14:51:49.514Z,67.20
2017-10-10T14:54:17.290Z,67.66
2017-10-10T14:56:44.865Z,66.94
2017-10-10T14:59:12.382Z,67.20
2017-10-10T15:01:40.057Z,67.05
2017-10-10T15:04:07.627Z,66.86
2017-10-10T15:06:35.173Z,66.17
2017-10-10T15:09:02.819Z,64.83
2017-10-10T15:11:30.359Z,65.80
2017-10-10T15:13:57.955Z,65.17
2017-10-10T15:16:25.702Z,63.76
2017-10-10T15:18:53.278Z,63.27
2017-10-10T15:21:20.842Z,62.83
2017-10-10T15:23:48.387Z,62.09
2017-10-10T15:26:15.907Z,61.68
2017-10-10T15:28:43.418Z,61.43
2017-10-10T15:31:11.277Z,61.97
2017-10-10T15:33:39.962Z,63.34
2017-10-10T15:36:07.479Z,62.76
2017-10-10T15:38:35.472Z,62.77
2017-10-10T15:41:02.988Z,62.14
2017-10-10T15:43:30.553Z,62.09
2017-10-10T15:45:58.183Z,62.48
2017-10-10T15:48:25.727Z,63.38
2017-10-10T15:50:53.246Z,63.01
2017-10-10T15:53:20.925Z,63.36
2017-10-10T15:55:48.447Z,63.63
2017-10-10T15:58:15.990Z,63.96
2017-10-10T16:00:44.240Z,64.02
2017-10-10T16:03:12.004Z,64.79
2017-10-10T16:05:39.555Z,64.47
2017-10-10T16:08:07.583Z,65.27
2017-10-10T16:10:35.505Z,65.11
2017-10-10T16:13:03.425Z,65.51
2017-10-10T16:15:31.753Z,64.91
2017-10-10T16:17:59.713Z,65.70
2017-10-10T16:20:27.330Z,65.15
2017-10-10T16:22:56.164Z,66.46
2017-10-10T16:25:24.851Z,65.78
2017-10-10T16:27:52.662Z,65.90
2017-10-10T16:30:20.994Z,65.15
2017-10-10T16:32:48.754Z,64.70
2017-10-10T16:35:16.520Z,64.41
2017-10-10T16:37:44.488Z,65.19
2017-10-10T16:40:12.371Z,65.16
2017-10-10T16:42:41.413Z,65.40
2017-10-10T16:45:09.569Z,65.58
2017-10-10T16:47:37.385Z,65.61
2017-10-10T16:50:05.116Z,65.77
2017-10-10T16:52:33.200Z,66.02
2017-10-10T16:55:00.986Z,65.76
2017-10-10T16:57:28.751Z,65.43
2017-10-10T16:59:56.737Z,65.36
2017-10-10T17:02:24.629Z,65.38
2017-10-10T17:04:53.423Z,65.54
2017-10-10T17:07:21.647Z,65.41
2017-10-10T17:09:52.586Z,65.68
2017-10-10T17:12:20.656Z,65.86
2017-10-10T17:14:48.525Z,66.74
2017-10-10T17:17:16.404Z,67.01
2017-10-10T17:19:44.186Z,66.63
2017-10-10T17:22:11.827Z,66.60
2017-10-10T17:24:39.374Z,66.54
2017-10-10T17:27:07.049Z,67.72
2017-10-10T17:29:35.744Z,68.14
2017-10-10T17:32:04.216Z,68.72
2017-10-10T17:34:32.289Z,69.09
2017-10-10T17:37:00.037Z,68.60
2017-10-10T17:39:27.596Z,68.47
2017-10-10T17:41:56.210Z,68.85
2017-10-10T17:44:23.861Z,68.52
2017-10-10T17:46:52.424Z,68.32
2017-10-10T17:49:21.579Z,68.61
2017-10-10T17:51:49.177Z,68.46
2017-10-10T17:54:16.773Z,68.98
2017-10-10T17:56:44.515Z,68.07
2017-10-10T17:59:12.112Z,68.05
2017-10-10T18:01:40.228Z,68.73
2017-10-10T18:04:08.415Z,68.28
2017-10-10T18:06:36.277Z,68.97
2017-10-10T18:09:03.905Z,68.34
2017-10-10T18:11:31.579Z,67.43
2017-10-10T18:13:59.284Z,68.60
2017-10-10T18:16:28.049Z,67.78
2017-10-10T18:18:56.089Z,67.85
2017-10-10T18:21:24.703Z,68.08
2017-10-10T18:23:52.483Z,68.04
2017-10-10T18:26:20.640Z,68.72
2017-10-10T18:28:48.414Z,68.98
2017-10-10T18:31:16.231Z,70.16
2017-10-10T18:33:44.260Z,68.97
2017-10-10T18:36:13.232Z,69.47
2017-10-10T18:38:41.098Z,68.66
2017-10-10T18:41:09.737Z,68.78
2017-10-10T18:43:37.653Z,68.94
2017-10-10T18:46:05.519Z,68.93
2017-10-10T18:48:33.663Z,68.70
2017-10-10T18:51:01.463Z,68.99
2017-10-10T18:53:30.274Z,68.89
2017-10-10T18:55:58.312Z,68.63
2017-10-10T18:58:26.077Z,68.05
2017-10-10T19:00:54.223Z,67.87
2017-10-10T19:03:22.322Z,67.26
2017-10-10T19:05:50.086Z,68.00
2017-10-10T19:08:17.952Z,67.01
2017-10-10T19:10:45.932Z,67.37
2017-10-10T19:13:13.689Z,66.91
2017-10-10T19:15:41.449Z,66.76
2017-10-10T19:18:09.527Z,66.98
2017-10-10T19:23:04.299Z,66.90
2017-10-10T19:25:32.298Z,67.52
2017-10-10T19:28:00.268Z,67.72
2017-10-10T19:30:28.038Z,67.74
2017-10-10T19:32:56.041Z,67.84
2017-10-10T19:35:24.585Z,65.63
2017-10-10T19:37:52.348Z,66.37
2017-10-10T19:40:20.176Z,65.92
2017-10-10T19:42:47.874Z,65.59
2017-10-10T19:45:16.869Z,65.30
2017-10-10T19:47:44.643Z,64.93
2017-10-10T19:50:12.391Z,65.58
2017-10-10T19:52:40.250Z,65.53
2017-10-10T19:55:08.025Z,66.16
2017-10-10T19:57:35.893Z,65.86
2017-10-10T20:00:03.861Z,66.54
2017-10-10T20:02:31.631Z,67.01
2017-10-10T20:04:59.386Z,66.72
2017-10-10T20:07:27.258Z,67.17
2017-10-10T20:09:55.120Z,68.16
2017-10-10T20:12:22.906Z,67.77
2017-10-10T20:14:50.646Z,66.80
2017-10-10T20:17:18.452Z,66.26
2017-10-10T20:19:46.279Z,66.58
2017-10-10T20:22:14.146Z,65.86
2017-10-10T20:24:42.125Z,65.69
2017-10-10T20:27:10.697Z,65.53
2017-10-10T20:29:38.598Z,65.46
2017-10-10T20:32:06.431Z,65.81
2017-10-10T20:34:34.296Z,66.45
2017-10-10T20:37:02.054Z,66.21
2017-10-10T20:39:30.952Z,66.23
2017-10-10T20:41:58.814Z,66.06
2017-10-10T20:44:26.683Z,66.58
2017-10-10T20:46:54.751Z,66.91
2017-10-10T20:49:22.527Z,67.88
2017-10-10T20:51:50.282Z,67.46
2017-10-10T20:54:18.065Z,67.21
2017-10-10T20:56:45.710Z,67.15
2017-10-10T20:59:13.361Z,67.82
2017-10-10T21:01:41.645Z,67.13
2017-10-10T21:04:09.340Z,66.86
2017-10-10T21:06:37.080Z,66.70
2017-10-10T21:09:05.109Z,66.13
2017-10-10T21:11:32.701Z,65.98
2017-10-10T21:14:00.297Z,66.81
2017-10-10T21:16:28.186Z,67.95
2017-10-10T21:18:56.995Z,67.04
2017-10-10T21:21:24.857Z,66.65
2017-10-10T21:23:52.646Z,66.12
2017-10-10T21:26:20.412Z,65.71
2017-10-10T21:28:48.008Z,65.55
2017-10-10T21:31:15.899Z,65.68
2017-10-10T21:33:43.513Z,66.28
2017-10-10T21:36:11.126Z,66.20
2017-10-10T21:38:39.128Z,66.65
2017-10-10T21:41:06.688Z,66.38
2017-10-10T21:43:34.344Z,66.57
2017-10-10T21:46:02.119Z,66.54
2017-10-10T21:48:29.773Z,66.20
2017-10-10T21:50:57.312Z,66.15
2017-10-10T21:53:24.976Z,66.50
2017-10-10T21:55:52.656Z,65.89
2017-10-10T21:58:20.225Z,66.10
2017-10-10T22:00:47.999Z,66.23
2017-10-10T22:03:15.773Z,65.51
2017-10-10T22:05:43.356Z,65.17
2017-10-10T22:08:11.168Z,65.37
2017-10-10T22:10:38.677Z,66.03
2017-10-10T22:13:06.198Z,65.91
2017-10-10T22:15:33.747Z,65.57
2017-10-10T22:18:01.713Z,64.57
2017-10-10T22:20:29.271Z,64.24
2017-10-10T22:22:57.036Z,64.50
2017-10-10T22:25:24.595Z,64.26
2017-10-10T22:27:52.101Z,64.51
2017-10-10T22:30:19.898Z,63.94
2017-10-10T22:32:47.409Z,64.08
2017-10-10T22:35:14.918Z,63.92
2017-10-10T22:37:42.504Z,64.15
2017-10-10T22:40:10.051Z,63.82
2017-10-10T22:42:37.611Z,63.80
2017-10-10T22:45:05.169Z,63.93
2017-10-10T22:47:32.675Z,64.38
2017-10-10T22:50:00.187Z,64.16
2017-10-10T22:52:27.926Z,63.95
2017-10-10T22:54:55.459Z,63.26
2017-10-10T22:57:23.069Z,63.08
2017-10-10T22:59:50.750Z,63.33
2017-10-10T23:02:18.256Z,64.21
2017-10-10T23:04:45.770Z,64.12
2017-10-10T23:07:13.610Z,63.68
2017-10-10T23:09:41.171Z,63.54
2017-10-10T23:12:08.730Z,63.12
2017-10-10T23:14:36.492Z,62.98
2017-10-10T23:17:04.007Z,62.62
2017-10-10T23:19:31.561Z,62.23
2017-10-10T23:21:59.404Z,62.25
2017-10-10T23:24:26.922Z,62.12
2017-10-10T23:26:54.443Z,62.86
2017-10-10T23:29:22.260Z,62.76
2017-10-10T23:31:49.820Z,62.67
2017-10-10T23:34:17.377Z,62.06
2017-10-10T23:36:44.935Z,62.75
2017-10-10T23:39:12.498Z,62.29
2017-10-10T23:41:40.012Z,62.36
2017-10-10T23:44:07.713Z,62.77
2017-10-10T23:46:35.274Z,62.93
2017-10-10T23:49:02.782Z,62.47
2017-10-10T23:51:30.479Z,62.77
2017-10-10T23:53:58.054Z,62.94
2017-10-10T23:56:25.570Z,62.66
2017-10-10T23:58:53.478Z,61.74
